sensor_id;sensor_type;location;lat;lon;timestamp;P1;durP1;ratioP1;P2;durP2;ratioP2
29210;SDS011;16250;49.932;10.980;2023-04-01T00:01:14;26.20;;;24.70;;
29210;SDS011;16250;49.932;10.980;2023-04-01T00:03:41;29.48;;;27.90;;
29210;SDS011;16250;49.932;10.980;2023-04-01T00:06:07;28.65;;;27.13;;
29210;SDS011;16250;49.932;10.980;2023-04-01T00:08:32;22.83;;;21.60;;
29210;SDS011;16250;49.932;10.980;2023-04-01T00:10:58;24.63;;;23.13;;
29210;SDS011;16250;49.932;10.980;2023-04-01T00:13:26;21.05;;;19.88;;
29210;SDS011;16250;49.932;10.980;2023-04-01T00:15:52;23.27;;;21.77;;
29210;SDS011;16250;49.932;10.980;2023-04-01T00:18:18;25.95;;;24.55;;
29210;SDS011;16250;49.932;10.980;2023-04-01T00:20:44;24.45;;;23.25;;
29210;SDS011;16250;49.932;10.980;2023-04-01T00:23:11;22.25;;;20.92;;
29210;SDS011;16250;49.932;10.980;2023-04-01T00:25:37;21.40;;;20.10;;
29210;SDS011;16250;49.932;10.980;2023-04-01T00:28:02;21.48;;;20.20;;
29210;SDS011;16250;49.932;10.980;2023-04-01T00:30:27;21.98;;;20.65;;
29210;SDS011;16250;49.932;10.980;2023-04-01T00:32:53;21.25;;;19.77;;
29210;SDS011;16250;49.932;10.980;2023-04-01T00:35:19;24.40;;;22.75;;
29210;SDS011;16250;49.932;10.980;2023-04-01T00:37:44;20.08;;;19.08;;
29210;SDS011;16250;49.932;10.980;2023-04-01T00:40:22;22.40;;;20.90;;
29210;SDS011;16250;49.932;10.980;2023-04-01T00:42:48;19.20;;;18.20;;
29210;SDS011;16250;49.932;10.980;2023-04-01T00:45:27;21.23;;;20.02;;
29210;SDS011;16250;49.932;10.980;2023-04-01T00:47:58;19.08;;;17.80;;
29210;SDS011;16250;49.932;10.980;2023-04-01T00:50:25;20.17;;;18.77;;
29210;SDS011;16250;49.932;10.980;2023-04-01T00:52:52;17.17;;;16.08;;
29210;SDS011;16250;49.932;10.980;2023-04-01T00:55:18;13.65;;;12.82;;
29210;SDS011;16250;49.932;10.980;2023-04-01T00:57:44;18.75;;;17.52;;
29210;SDS011;16250;49.932;10.980;2023-04-01T01:00:11;14.57;;;13.52;;
29210;SDS011;16250;49.932;10.980;2023-04-01T01:02:42;16.42;;;15.52;;
29210;SDS011;16250;49.932;10.980;2023-04-01T01:05:10;15.18;;;14.38;;
29210;SDS011;16250;49.932;10.980;2023-04-01T01:07:49;15.63;;;14.82;;
29210;SDS011;16250;49.932;10.980;2023-04-01T01:10:34;13.55;;;12.45;;
29210;SDS011;16250;49.932;10.980;2023-04-01T01:13:06;12.43;;;11.65;;
29210;SDS011;16250;49.932;10.980;2023-04-01T01:18:16;10.98;;;10.23;;
29210;SDS011;16250;49.932;10.980;2023-04-01T01:26:40;11.63;;;10.90;;
29210;SDS011;16250;49.932;10.980;2023-04-01T01:35:04;12.35;;;11.65;;
29210;SDS011;16250;49.932;10.980;2023-04-01T01:37:50;12.23;;;11.48;;
29210;SDS011;16250;49.932;10.980;2023-04-01T01:40:18;8.48;;;7.97;;
29210;SDS011;16250;49.932;10.980;2023-04-01T01:42:46;10.23;;;9.35;;
29210;SDS011;16250;49.932;10.980;2023-04-01T01:45:14;11.50;;;10.80;;
29210;SDS011;16250;49.932;10.980;2023-04-01T01:47:43;11.25;;;10.45;;
29210;SDS011;16250;49.932;10.980;2023-04-01T01:50:10;11.57;;;10.85;;
29210;SDS011;16250;49.932;10.980;2023-04-01T01:52:36;13.57;;;12.70;;
29210;SDS011;16250;49.932;10.980;2023-04-01T01:55:02;12.45;;;11.65;;
29210;SDS011;16250;49.932;10.980;2023-04-01T01:57:38;13.68;;;12.73;;
29210;SDS011;16250;49.932;10.980;2023-04-01T02:00:08;10.50;;;9.68;;
29210;SDS011;16250;49.932;10.980;2023-04-01T02:02:39;11.73;;;11.02;;
29210;SDS011;16250;49.932;10.980;2023-04-01T02:05:06;11.95;;;11.15;;
29210;SDS011;16250;49.932;10.980;2023-04-01T02:07:34;11.85;;;11.10;;
29210;SDS011;16250;49.932;10.980;2023-04-01T02:10:00;10.73;;;9.90;;
29210;SDS011;16250;49.932;10.980;2023-04-01T02:12:26;12.07;;;11.35;;
29210;SDS011;16250;49.932;10.980;2023-04-01T02:14:53;12.20;;;11.25;;
29210;SDS011;16250;49.932;10.980;2023-04-01T02:17:25;11.55;;;10.73;;
29210;SDS011;16250;49.932;10.980;2023-04-01T02:19:56;9.80;;;9.20;;
29210;SDS011;16250;49.932;10.980;2023-04-01T02:22:31;11.30;;;10.40;;
29210;SDS011;16250;49.932;10.980;2023-04-01T02:25:06;14.55;;;13.50;;
29210;SDS011;16250;49.932;10.980;2023-04-01T02:27:33;10.82;;;10.10;;
29210;SDS011;16250;49.932;10.980;2023-04-01T02:29:59;10.60;;;9.95;;
29210;SDS011;16250;49.932;10.980;2023-04-01T02:32:25;13.40;;;12.45;;
29210;SDS011;16250;49.932;10.980;2023-04-01T02:34:52;10.73;;;9.98;;
29210;SDS011;16250;49.932;10.980;2023-04-01T02:37:18;12.35;;;11.45;;
29210;SDS011;16250;49.932;10.980;2023-04-01T02:39:43;12.32;;;11.60;;
29210;SDS011;16250;49.932;10.980;2023-04-01T02:42:09;11.45;;;10.80;;
29210;SDS011;16250;49.932;10.980;2023-04-01T02:44:35;10.80;;;9.90;;
29210;SDS011;16250;49.932;10.980;2023-04-01T02:47:00;9.65;;;9.05;;
29210;SDS011;16250;49.932;10.980;2023-04-01T02:49:26;9.35;;;8.52;;
29210;SDS011;16250;49.932;10.980;2023-04-01T02:51:51;12.40;;;11.20;;
29210;SDS011;16250;49.932;10.980;2023-04-01T02:54:17;11.77;;;10.88;;
29210;SDS011;16250;49.932;10.980;2023-04-01T02:56:43;10.55;;;9.80;;
29210;SDS011;16250;49.932;10.980;2023-04-01T02:59:09;10.52;;;9.93;;
29210;SDS011;16250;49.932;10.980;2023-04-01T03:01:34;11.02;;;10.13;;
29210;SDS011;16250;49.932;10.980;2023-04-01T03:04:00;10.60;;;9.63;;
29210;SDS011;16250;49.932;10.980;2023-04-01T03:06:25;10.35;;;9.68;;
29210;SDS011;16250;49.932;10.980;2023-04-01T03:08:50;12.25;;;11.55;;
29210;SDS011;16250;49.932;10.980;2023-04-01T03:11:16;12.32;;;11.52;;
29210;SDS011;16250;49.932;10.980;2023-04-01T03:13:41;11.55;;;10.65;;
29210;SDS011;16250;49.932;10.980;2023-04-01T03:16:07;11.20;;;10.48;;
29210;SDS011;16250;49.932;10.980;2023-04-01T03:18:34;10.23;;;9.50;;
29210;SDS011;16250;49.932;10.980;2023-04-01T03:21:19;11.20;;;10.40;;
29210;SDS011;16250;49.932;10.980;2023-04-01T03:23:45;12.05;;;11.15;;
29210;SDS011;16250;49.932;10.980;2023-04-01T03:26:11;12.35;;;11.27;;
29210;SDS011;16250;49.932;10.980;2023-04-01T03:28:36;11.60;;;10.85;;
29210;SDS011;16250;49.932;10.980;2023-04-01T03:31:02;11.43;;;10.63;;
29210;SDS011;16250;49.932;10.980;2023-04-01T03:33:32;9.80;;;9.20;;
29210;SDS011;16250;49.932;10.980;2023-04-01T03:35:58;12.70;;;11.57;;
29210;SDS011;16250;49.932;10.980;2023-04-01T03:38:23;11.68;;;10.77;;
29210;SDS011;16250;49.932;10.980;2023-04-01T03:40:49;11.55;;;10.60;;
29210;SDS011;16250;49.932;10.980;2023-04-01T03:43:14;11.60;;;10.77;;
29210;SDS011;16250;49.932;10.980;2023-04-01T03:45:45;10.32;;;9.55;;
29210;SDS011;16250;49.932;10.980;2023-04-01T03:48:12;11.05;;;10.35;;
29210;SDS011;16250;49.932;10.980;2023-04-01T03:50:38;10.35;;;9.52;;
29210;SDS011;16250;49.932;10.980;2023-04-01T03:53:04;10.88;;;10.00;;
29210;SDS011;16250;49.932;10.980;2023-04-01T03:55:29;11.15;;;10.35;;
29210;SDS011;16250;49.932;10.980;2023-04-01T03:57:55;11.48;;;10.52;;
29210;SDS011;16250;49.932;10.980;2023-04-01T04:00:20;12.00;;;11.25;;
29210;SDS011;16250;49.932;10.980;2023-04-01T04:02:51;10.30;;;9.38;;
29210;SDS011;16250;49.932;10.980;2023-04-01T04:05:23;12.68;;;11.85;;
29210;SDS011;16250;49.932;10.980;2023-04-01T04:07:49;12.65;;;11.95;;
29210;SDS011;16250;49.932;10.980;2023-04-01T04:10:15;11.80;;;11.10;;
29210;SDS011;16250;49.932;10.980;2023-04-01T04:12:40;14.13;;;13.05;;
29210;SDS011;16250;49.932;10.980;2023-04-01T04:15:07;10.73;;;9.95;;
29210;SDS011;16250;49.932;10.980;2023-04-01T04:17:33;11.23;;;10.43;;
29210;SDS011;16250;49.932;10.980;2023-04-01T04:19:58;10.70;;;9.98;;
29210;SDS011;16250;49.932;10.980;2023-04-01T04:22:24;13.77;;;12.88;;
29210;SDS011;16250;49.932;10.980;2023-04-01T04:24:49;14.43;;;13.43;;
29210;SDS011;16250;49.932;10.980;2023-04-01T04:27:16;11.82;;;11.13;;
29210;SDS011;16250;49.932;10.980;2023-04-01T04:29:54;12.25;;;11.25;;
29210;SDS011;16250;49.932;10.980;2023-04-01T04:32:19;10.73;;;10.02;;
29210;SDS011;16250;49.932;10.980;2023-04-01T04:34:45;13.57;;;12.27;;
29210;SDS011;16250;49.932;10.980;2023-04-01T04:37:10;10.00;;;9.23;;
29210;SDS011;16250;49.932;10.980;2023-04-01T04:39:36;9.95;;;9.15;;
29210;SDS011;16250;49.932;10.980;2023-04-01T04:42:02;11.30;;;10.50;;
29210;SDS011;16250;49.932;10.980;2023-04-01T04:44:27;11.65;;;10.65;;
29210;SDS011;16250;49.932;10.980;2023-04-01T04:46:53;11.48;;;10.57;;
29210;SDS011;16250;49.932;10.980;2023-04-01T04:49:18;12.35;;;11.60;;
29210;SDS011;16250;49.932;10.980;2023-04-01T04:51:44;13.85;;;12.77;;
29210;SDS011;16250;49.932;10.980;2023-04-01T04:54:12;10.38;;;9.48;;
29210;SDS011;16250;49.932;10.980;2023-04-01T04:56:47;10.23;;;9.43;;
29210;SDS011;16250;49.932;10.980;2023-04-01T04:59:12;12.27;;;11.55;;
29210;SDS011;16250;49.932;10.980;2023-04-01T05:01:44;15.35;;;14.30;;
29210;SDS011;16250;49.932;10.980;2023-04-01T05:04:10;13.38;;;12.25;;
29210;SDS011;16250;49.932;10.980;2023-04-01T05:06:35;14.45;;;13.63;;
29210;SDS011;16250;49.932;10.980;2023-04-01T05:09:01;15.50;;;14.50;;
29210;SDS011;16250;49.932;10.980;2023-04-01T05:11:26;13.00;;;12.10;;
29210;SDS011;16250;49.932;10.980;2023-04-01T05:13:53;15.70;;;14.65;;
29210;SDS011;16250;49.932;10.980;2023-04-01T05:16:19;21.55;;;19.98;;
29210;SDS011;16250;49.932;10.980;2023-04-01T05:18:46;21.05;;;19.15;;
29210;SDS011;16250;49.932;10.980;2023-04-01T05:21:12;64.50;;;58.33;;
29210;SDS011;16250;49.932;10.980;2023-04-01T05:23:39;46.38;;;41.63;;
29210;SDS011;16250;49.932;10.980;2023-04-01T05:26:06;25.33;;;22.98;;
29210;SDS011;16250;49.932;10.980;2023-04-01T05:28:36;19.73;;;18.33;;
29210;SDS011;16250;49.932;10.980;2023-04-01T05:31:02;67.95;;;61.03;;
29210;SDS011;16250;49.932;10.980;2023-04-01T05:33:33;91.30;;;82.32;;
29210;SDS011;16250;49.932;10.980;2023-04-01T05:36:12;30.08;;;27.98;;
29210;SDS011;16250;49.932;10.980;2023-04-01T05:38:39;24.77;;;23.10;;
29210;SDS011;16250;49.932;10.980;2023-04-01T05:41:08;12.82;;;11.90;;
29210;SDS011;16250;49.932;10.980;2023-04-01T05:43:37;12.82;;;12.02;;
29210;SDS011;16250;49.932;10.980;2023-04-01T05:46:23;11.30;;;10.48;;
29210;SDS011;16250;49.932;10.980;2023-04-01T05:48:55;11.85;;;11.23;;
29210;SDS011;16250;49.932;10.980;2023-04-01T05:51:22;13.30;;;12.25;;
29210;SDS011;16250;49.932;10.980;2023-04-01T05:53:47;13.43;;;12.73;;
29210;SDS011;16250;49.932;10.980;2023-04-01T05:56:13;13.38;;;12.65;;
29210;SDS011;16250;49.932;10.980;2023-04-01T05:58:46;12.07;;;11.27;;
29210;SDS011;16250;49.932;10.980;2023-04-01T06:01:12;12.77;;;11.98;;
29210;SDS011;16250;49.932;10.980;2023-04-01T06:03:38;15.65;;;14.75;;
29210;SDS011;16250;49.932;10.980;2023-04-01T06:06:03;17.02;;;16.02;;
29210;SDS011;16250;49.932;10.980;2023-04-01T06:08:29;17.95;;;16.85;;
29210;SDS011;16250;49.932;10.980;2023-04-01T06:13:48;17.25;;;16.17;;
29210;SDS011;16250;49.932;10.980;2023-04-01T06:24:50;20.50;;;18.88;;
29210;SDS011;16250;49.932;10.980;2023-04-01T06:30:43;27.38;;;25.70;;
29210;SDS011;16250;49.932;10.980;2023-04-01T06:33:24;26.55;;;24.75;;
29210;SDS011;16250;49.932;10.980;2023-04-01T06:36:19;24.40;;;22.90;;
29210;SDS011;16250;49.932;10.980;2023-04-01T06:47:23;27.15;;;25.73;;
29210;SDS011;16250;49.932;10.980;2023-04-01T06:53:49;29.50;;;28.17;;
29210;SDS011;16250;49.932;10.980;2023-04-01T06:56:40;33.08;;;31.63;;
29210;SDS011;16250;49.932;10.980;2023-04-01T06:59:20;35.25;;;33.53;;
29210;SDS011;16250;49.932;10.980;2023-04-01T07:01:57;31.27;;;29.88;;
29210;SDS011;16250;49.932;10.980;2023-04-01T07:04:36;29.65;;;28.35;;
29210;SDS011;16250;49.932;10.980;2023-04-01T07:09:52;18.90;;;18.00;;
29210;SDS011;16250;49.932;10.980;2023-04-01T07:15:30;26.65;;;25.25;;
29210;SDS011;16250;49.932;10.980;2023-04-01T07:18:03;34.83;;;33.13;;
29210;SDS011;16250;49.932;10.980;2023-04-01T07:20:37;43.05;;;41.00;;
29210;SDS011;16250;49.932;10.980;2023-04-01T07:23:08;41.08;;;39.08;;
29210;SDS011;16250;49.932;10.980;2023-04-01T07:25:53;40.38;;;38.50;;
29210;SDS011;16250;49.932;10.980;2023-04-01T07:28:28;42.45;;;40.55;;
29210;SDS011;16250;49.932;10.980;2023-04-01T07:36:24;46.58;;;44.50;;
29210;SDS011;16250;49.932;10.980;2023-04-01T07:42:05;35.42;;;33.83;;
29210;SDS011;16250;49.932;10.980;2023-04-01T07:44:51;38.40;;;36.50;;
29210;SDS011;16250;49.932;10.980;2023-04-01T08:04:03;54.55;;;52.05;;
29210;SDS011;16250;49.932;10.980;2023-04-01T08:07:09;50.50;;;48.10;;
29210;SDS011;16250;49.932;10.980;2023-04-01T08:19:03;54.15;;;51.50;;
29210;SDS011;16250;49.932;10.980;2023-04-01T08:21:55;57.45;;;54.20;;
29210;SDS011;16250;49.932;10.980;2023-04-01T08:26:56;55.60;;;52.97;;
29210;SDS011;16250;49.932;10.980;2023-04-01T08:29:39;55.88;;;52.97;;
29210;SDS011;16250;49.932;10.980;2023-04-01T08:34:37;57.92;;;55.22;;
29210;SDS011;16250;49.932;10.980;2023-04-01T08:37:19;52.22;;;49.70;;
29210;SDS011;16250;49.932;10.980;2023-04-01T08:39:51;51.53;;;49.20;;
29210;SDS011;16250;49.932;10.980;2023-04-01T08:53:56;54.45;;;51.85;;
29210;SDS011;16250;49.932;10.980;2023-04-01T08:56:37;56.55;;;53.80;;
29210;SDS011;16250;49.932;10.980;2023-04-01T09:10:29;52.35;;;50.00;;
29210;SDS011;16250;49.932;10.980;2023-04-01T09:16:13;52.50;;;50.30;;
29210;SDS011;16250;49.932;10.980;2023-04-01T09:18:49;49.83;;;47.63;;
29210;SDS011;16250;49.932;10.980;2023-04-01T09:35:47;50.35;;;48.33;;
29210;SDS011;16250;49.932;10.980;2023-04-01T09:40:57;41.63;;;39.85;;
29210;SDS011;16250;49.932;10.980;2023-04-01T09:54:19;43.42;;;41.42;;
29210;SDS011;16250;49.932;10.980;2023-04-01T10:11:39;38.22;;;36.55;;
29210;SDS011;16250;49.932;10.980;2023-04-01T10:19:49;33.67;;;32.28;;
29210;SDS011;16250;49.932;10.980;2023-04-01T10:25:47;37.63;;;36.13;;
29210;SDS011;16250;49.932;10.980;2023-04-01T10:28:37;43.03;;;41.33;;
29210;SDS011;16250;49.932;10.980;2023-04-01T10:34:35;50.03;;;47.83;;
29210;SDS011;16250;49.932;10.980;2023-04-01T10:37:23;53.40;;;51.10;;
29210;SDS011;16250;49.932;10.980;2023-04-01T10:49:10;54.05;;;51.75;;
29210;SDS011;16250;49.932;10.980;2023-04-01T11:08:01;56.45;;;54.03;;
29210;SDS011;16250;49.932;10.980;2023-04-01T11:41:41;52.15;;;49.85;;
29210;SDS011;16250;49.932;10.980;2023-04-01T11:44:52;53.03;;;50.92;;
29210;SDS011;16250;49.932;10.980;2023-04-01T11:53:10;53.95;;;51.55;;
29210;SDS011;16250;49.932;10.980;2023-04-01T11:55:58;55.55;;;53.15;;
29210;SDS011;16250;49.932;10.980;2023-04-01T11:58:37;53.95;;;51.65;;
29210;SDS011;16250;49.932;10.980;2023-04-01T12:01:17;53.60;;;51.30;;
29210;SDS011;16250;49.932;10.980;2023-04-01T12:03:48;53.20;;;51.00;;
29210;SDS011;16250;49.932;10.980;2023-04-01T12:09:28;53.17;;;50.88;;
29210;SDS011;16250;49.932;10.980;2023-04-01T12:12:38;52.20;;;49.80;;
29210;SDS011;16250;49.932;10.980;2023-04-01T12:23:13;51.83;;;49.53;;
29210;SDS011;16250;49.932;10.980;2023-04-01T12:25:56;52.45;;;50.25;;
29210;SDS011;16250;49.932;10.980;2023-04-01T12:28:36;52.58;;;50.45;;
29210;SDS011;16250;49.932;10.980;2023-04-01T12:36:43;50.50;;;48.30;;
29210;SDS011;16250;49.932;10.980;2023-04-01T12:42:03;51.45;;;49.17;;
29210;SDS011;16250;49.932;10.980;2023-04-01T12:58:08;52.20;;;50.00;;
29210;SDS011;16250;49.932;10.980;2023-04-01T13:03:19;52.03;;;49.88;;
29210;SDS011;16250;49.932;10.980;2023-04-01T13:06:17;51.92;;;49.83;;
29210;SDS011;16250;49.932;10.980;2023-04-01T13:09:06;53.55;;;51.35;;
29210;SDS011;16250;49.932;10.980;2023-04-01T13:11:51;53.13;;;50.92;;
29210;SDS011;16250;49.932;10.980;2023-04-01T13:14:44;51.80;;;49.60;;
29210;SDS011;16250;49.932;10.980;2023-04-01T13:17:36;51.95;;;49.85;;
29210;SDS011;16250;49.932;10.980;2023-04-01T13:20:26;50.78;;;48.67;;
29210;SDS011;16250;49.932;10.980;2023-04-01T13:23:07;48.90;;;46.90;;
29210;SDS011;16250;49.932;10.980;2023-04-01T13:25:59;50.05;;;47.95;;
29210;SDS011;16250;49.932;10.980;2023-04-01T13:28:34;49.95;;;47.95;;
29210;SDS011;16250;49.932;10.980;2023-04-01T13:31:16;48.33;;;46.40;;
29210;SDS011;16250;49.932;10.980;2023-04-01T13:34:05;48.15;;;46.05;;
29210;SDS011;16250;49.932;10.980;2023-04-01T13:53:17;49.50;;;47.30;;
29210;SDS011;16250;49.932;10.980;2023-04-01T13:55:53;46.13;;;44.28;;
29210;SDS011;16250;49.932;10.980;2023-04-01T14:01:06;48.40;;;46.20;;
29210;SDS011;16250;49.932;10.980;2023-04-01T14:17:57;46.05;;;44.15;;
29210;SDS011;16250;49.932;10.980;2023-04-01T14:20:29;49.33;;;47.22;;
29210;SDS011;16250;49.932;10.980;2023-04-01T14:26:21;51.95;;;49.72;;
29210;SDS011;16250;49.932;10.980;2023-04-01T14:49:17;51.10;;;49.00;;
29210;SDS011;16250;49.932;10.980;2023-04-01T14:51:46;51.13;;;49.03;;
29210;SDS011;16250;49.932;10.980;2023-04-01T14:57:05;52.92;;;50.83;;
29210;SDS011;16250;49.932;10.980;2023-04-01T14:59:55;53.70;;;51.53;;
29210;SDS011;16250;49.932;10.980;2023-04-01T15:02:59;48.08;;;46.10;;
29210;SDS011;16250;49.932;10.980;2023-04-01T15:05:48;52.90;;;50.70;;
29210;SDS011;16250;49.932;10.980;2023-04-01T15:08:28;51.03;;;48.95;;
29210;SDS011;16250;49.932;10.980;2023-04-01T15:10:59;50.63;;;48.47;;
29210;SDS011;16250;49.932;10.980;2023-04-01T15:16:31;53.75;;;51.47;;
29210;SDS011;16250;49.932;10.980;2023-04-01T15:22:17;49.15;;;47.15;;
29210;SDS011;16250;49.932;10.980;2023-04-01T15:25:05;52.75;;;50.65;;
29210;SDS011;16250;49.932;10.980;2023-04-01T15:30:46;48.47;;;46.58;;
29210;SDS011;16250;49.932;10.980;2023-04-01T15:33:36;47.72;;;45.83;;
29210;SDS011;16250;49.932;10.980;2023-04-01T15:36:15;50.08;;;48.08;;
29210;SDS011;16250;49.932;10.980;2023-04-01T15:41:15;50.60;;;48.60;;
29210;SDS011;16250;49.932;10.980;2023-04-01T15:43:43;50.50;;;48.45;;
29210;SDS011;16250;49.932;10.980;2023-04-01T16:00:24;51.05;;;48.95;;
29210;SDS011;16250;49.932;10.980;2023-04-01T16:05:42;51.38;;;49.28;;
29210;SDS011;16250;49.932;10.980;2023-04-01T16:19:32;50.95;;;48.75;;
29210;SDS011;16250;49.932;10.980;2023-04-01T16:22:13;48.42;;;46.38;;
29210;SDS011;16250;49.932;10.980;2023-04-01T16:27:49;52.67;;;50.38;;
29210;SDS011;16250;49.932;10.980;2023-04-01T16:33:19;48.88;;;46.78;;
29210;SDS011;16250;49.932;10.980;2023-04-01T16:41:04;47.75;;;45.75;;
29210;SDS011;16250;49.932;10.980;2023-04-01T16:51:47;47.50;;;45.50;;
29210;SDS011;16250;49.932;10.980;2023-04-01T17:02:47;45.83;;;43.92;;
29210;SDS011;16250;49.932;10.980;2023-04-01T17:05:16;49.50;;;47.42;;
29210;SDS011;16250;49.932;10.980;2023-04-01T17:22:09;47.08;;;45.08;;
29210;SDS011;16250;49.932;10.980;2023-04-01T17:27:44;43.83;;;42.03;;
29210;SDS011;16250;49.932;10.980;2023-04-01T17:30:21;45.47;;;43.58;;
29210;SDS011;16250;49.932;10.980;2023-04-01T17:44:21;46.85;;;44.80;;
29210;SDS011;16250;49.932;10.980;2023-04-01T17:47:12;48.03;;;46.03;;
29210;SDS011;16250;49.932;10.980;2023-04-01T17:50:00;45.97;;;44.05;;
29210;SDS011;16250;49.932;10.980;2023-04-01T17:52:34;46.20;;;44.17;;
29210;SDS011;16250;49.932;10.980;2023-04-01T18:17:42;47.40;;;45.40;;
29210;SDS011;16250;49.932;10.980;2023-04-01T18:20:20;49.70;;;47.50;;
29210;SDS011;16250;49.932;10.980;2023-04-01T18:25:38;48.25;;;46.05;;
29210;SDS011;16250;49.932;10.980;2023-04-01T18:28:27;47.38;;;45.38;;
29210;SDS011;16250;49.932;10.980;2023-04-01T18:31:17;49.38;;;47.28;;
29210;SDS011;16250;49.932;10.980;2023-04-01T18:33:48;52.25;;;50.05;;
29210;SDS011;16250;49.932;10.980;2023-04-01T18:36:32;47.90;;;45.97;;
29210;SDS011;16250;49.932;10.980;2023-04-01T18:39:15;46.70;;;44.70;;
29210;SDS011;16250;49.932;10.980;2023-04-01T18:44:26;50.28;;;48.10;;
29210;SDS011;16250;49.932;10.980;2023-04-01T18:57:27;49.63;;;47.47;;
29210;SDS011;16250;49.932;10.980;2023-04-01T19:00:18;49.25;;;47.05;;
29210;SDS011;16250;49.932;10.980;2023-04-01T19:03:01;49.40;;;47.40;;
29210;SDS011;16250;49.932;10.980;2023-04-01T19:05:31;49.35;;;47.20;;
29210;SDS011;16250;49.932;10.980;2023-04-01T19:16:54;49.30;;;47.30;;
29210;SDS011;16250;49.932;10.980;2023-04-01T19:25:08;49.45;;;47.25;;
29210;SDS011;16250;49.932;10.980;2023-04-01T19:27:53;46.10;;;44.20;;
29210;SDS011;16250;49.932;10.980;2023-04-01T19:30:26;47.90;;;45.85;;
29210;SDS011;16250;49.932;10.980;2023-04-01T19:38:37;48.63;;;46.50;;
29210;SDS011;16250;49.932;10.980;2023-04-01T19:49:02;47.20;;;45.20;;
29210;SDS011;16250;49.932;10.980;2023-04-01T19:51:44;43.63;;;41.83;;
29210;SDS011;16250;49.932;10.980;2023-04-01T19:54:24;43.83;;;41.85;;
29210;SDS011;16250;49.932;10.980;2023-04-01T19:57:14;43.50;;;41.70;;
29210;SDS011;16250;49.932;10.980;2023-04-01T19:59:50;43.10;;;41.40;;
29210;SDS011;16250;49.932;10.980;2023-04-01T20:05:16;42.20;;;40.17;;
29210;SDS011;16250;49.932;10.980;2023-04-01T20:07:52;44.10;;;42.20;;
29210;SDS011;16250;49.932;10.980;2023-04-01T20:13:11;42.67;;;40.72;;
29210;SDS011;16250;49.932;10.980;2023-04-01T20:15:46;44.70;;;42.40;;
29210;SDS011;16250;49.932;10.980;2023-04-01T20:18:24;44.75;;;42.75;;
29210;SDS011;16250;49.932;10.980;2023-04-01T20:23:40;45.40;;;43.38;;
29210;SDS011;16250;49.932;10.980;2023-04-01T20:26:08;44.35;;;42.33;;
29210;SDS011;16250;49.932;10.980;2023-04-01T20:31:24;41.50;;;39.70;;
29210;SDS011;16250;49.932;10.980;2023-04-01T20:34:10;43.90;;;41.78;;
29210;SDS011;16250;49.932;10.980;2023-04-01T20:36:54;43.55;;;41.60;;
29210;SDS011;16250;49.932;10.980;2023-04-01T20:39:39;44.67;;;42.58;;
29210;SDS011;16250;49.932;10.980;2023-04-01T20:50:58;41.97;;;39.97;;
29210;SDS011;16250;49.932;10.980;2023-04-01T20:53:28;45.75;;;43.78;;
29210;SDS011;16250;49.932;10.980;2023-04-01T20:58:54;41.70;;;39.80;;
29210;SDS011;16250;49.932;10.980;2023-04-01T21:01:41;44.85;;;42.95;;
29210;SDS011;16250;49.932;10.980;2023-04-01T21:13:00;41.33;;;39.45;;
29210;SDS011;16250;49.932;10.980;2023-04-01T21:20:44;43.47;;;41.58;;
29210;SDS011;16250;49.932;10.980;2023-04-01T21:23:21;41.90;;;39.90;;
29210;SDS011;16250;49.932;10.980;2023-04-01T21:26:08;44.25;;;42.42;;
29210;SDS011;16250;49.932;10.980;2023-04-01T21:36:52;44.13;;;42.13;;
29210;SDS011;16250;49.932;10.980;2023-04-01T21:39:47;45.42;;;43.40;;
29210;SDS011;16250;49.932;10.980;2023-04-01T21:42:43;45.40;;;43.40;;
29210;SDS011;16250;49.932;10.980;2023-04-01T22:01:08;49.10;;;46.80;;
29210;SDS011;16250;49.932;10.980;2023-04-01T22:06:50;47.00;;;44.97;;
29210;SDS011;16250;49.932;10.980;2023-04-01T22:09:29;48.95;;;46.45;;
29210;SDS011;16250;49.932;10.980;2023-04-01T22:12:00;52.28;;;49.70;;
29210;SDS011;16250;49.932;10.980;2023-04-01T22:17:10;46.58;;;44.47;;
29210;SDS011;16250;49.932;10.980;2023-04-01T22:19:51;46.70;;;44.53;;
29210;SDS011;16250;49.932;10.980;2023-04-01T22:22:24;47.15;;;44.97;;
29210;SDS011;16250;49.932;10.980;2023-04-01T22:25:00;44.38;;;42.47;;
29210;SDS011;16250;49.932;10.980;2023-04-01T22:30:23;43.65;;;41.75;;
29210;SDS011;16250;49.932;10.980;2023-04-01T22:32:59;44.70;;;42.80;;
29210;SDS011;16250;49.932;10.980;2023-04-01T22:35:49;44.85;;;42.95;;
29210;SDS011;16250;49.932;10.980;2023-04-01T22:41:36;43.25;;;41.28;;
29210;SDS011;16250;49.932;10.980;2023-04-01T22:44:47;44.40;;;42.40;;
29210;SDS011;16250;49.932;10.980;2023-04-01T22:50:04;46.25;;;44.15;;
29210;SDS011;16250;49.932;10.980;2023-04-01T22:52:35;43.45;;;41.45;;
29210;SDS011;16250;49.932;10.980;2023-04-01T22:55:05;44.55;;;42.45;;
29210;SDS011;16250;49.932;10.980;2023-04-01T22:57:38;43.13;;;41.08;;
29210;SDS011;16250;49.932;10.980;2023-04-01T23:00:10;47.95;;;45.90;;
29210;SDS011;16250;49.932;10.980;2023-04-01T23:05:27;41.88;;;39.97;;
29210;SDS011;16250;49.932;10.980;2023-04-01T23:07:56;38.72;;;37.08;;
29210;SDS011;16250;49.932;10.980;2023-04-01T23:10:39;41.00;;;39.30;;
29210;SDS011;16250;49.932;10.980;2023-04-01T23:13:12;38.88;;;36.95;;
29210;SDS011;16250;49.932;10.980;2023-04-01T23:15:40;35.50;;;34.00;;
29210;SDS011;16250;49.932;10.980;2023-04-01T23:26:52;35.15;;;33.67;;
29210;SDS011;16250;49.932;10.980;2023-04-01T23:29:20;39.78;;;38.17;;
29210;SDS011;16250;49.932;10.980;2023-04-01T23:31:46;35.88;;;34.28;;
29210;SDS011;16250;49.932;10.980;2023-04-01T23:36:39;38.05;;;36.38;;
29210;SDS011;16250;49.932;10.980;2023-04-01T23:39:26;33.63;;;32.22;;
29210;SDS011;16250;49.932;10.980;2023-04-01T23:41:56;37.00;;;35.50;;
29210;SDS011;16250;49.932;10.980;2023-04-01T23:44:25;35.80;;;34.10;;
29210;SDS011;16250;49.932;10.980;2023-04-01T23:46:52;36.42;;;34.88;;
29210;SDS011;16250;49.932;10.980;2023-04-01T23:49:22;35.03;;;33.53;;
29210;SDS011;16250;49.932;10.980;2023-04-01T23:51:55;34.63;;;33.13;;
29210;SDS011;16250;49.932;10.980;2023-04-01T23:54:32;36.28;;;34.60;;
29210;SDS011;16250;49.932;10.980;2023-04-01T23:56:59;36.47;;;34.95;;
29210;SDS011;16250;49.932;10.980;2023-04-01T23:59:31;37.47;;;35.67;;
